createdAt,value
2017-06-27T00:00:08.106Z,1015.05
2017-06-27T00:01:16.996Z,1015.05
2017-06-27T00:02:25.886Z,1014.99
2017-06-27T00:03:34.785Z,1014.97
2017-06-27T00:04:43.823Z,1014.96
2017-06-27T00:05:53.044Z,1014.94
2017-06-27T00:07:01.936Z,1014.96
2017-06-27T00:08:11.476Z,1014.91
2017-06-27T00:09:21.018Z,1014.86
2017-06-27T00:10:30.057Z,1014.89
2017-06-27T00:11:38.943Z,1014.9
2017-06-27T00:12:48.157Z,1014.88
2017-06-27T00:13:57.044Z,1014.84
2017-06-27T00:15:05.934Z,1014.88
2017-06-27T00:16:15.522Z,1014.93
2017-06-27T00:17:24.418Z,1014.91
2017-06-27T00:18:33.629Z,1014.88
2017-06-27T00:19:42.515Z,1014.87
2017-06-27T00:20:51.731Z,1014.89
2017-06-27T00:22:00.673Z,1014.91
2017-06-27T00:23:09.888Z,1014.9
2017-06-27T00:24:19.427Z,1014.89
2017-06-27T00:25:28.637Z,1014.88
2017-06-27T00:26:37.526Z,1014.87
2017-06-27T00:27:46.417Z,1014.88
2017-06-27T00:28:55.309Z,1014.86
2017-06-27T00:30:04.196Z,1014.86
2017-06-27T00:31:13.083Z,1014.88
2017-06-27T00:32:21.970Z,1014.91
2017-06-27T00:33:31.110Z,1014.89
2017-06-27T00:34:39.999Z,1014.86
2017-06-27T00:35:49.212Z,1014.88
2017-06-27T00:36:58.100Z,1014.85
2017-06-27T00:38:07.314Z,1014.89
2017-06-27T00:39:16.679Z,1014.92
2017-06-27T00:40:25.891Z,1014.91
2017-06-27T00:41:35.103Z,1014.88
2017-06-27T00:42:43.985Z,1014.88
2017-06-27T00:43:52.872Z,1014.88
2017-06-27T00:45:02.142Z,1014.87
2017-06-27T00:46:11.357Z,1014.84
2017-06-27T00:47:20.247Z,1014.83
2017-06-27T00:48:29.134Z,1014.84
2017-06-27T00:49:38.345Z,1014.84
2017-06-27T00:50:47.633Z,1014.81
2017-06-27T00:51:56.844Z,1014.82
2017-06-27T00:53:05.775Z,1014.84
2017-06-27T00:54:14.661Z,1014.91
2017-06-27T00:55:23.550Z,1014.86
2017-06-27T00:56:32.435Z,1014.83
2017-06-27T00:57:41.325Z,1014.83
2017-06-27T00:58:50.865Z,1014.78
2017-06-27T00:59:59.755Z,1014.86
2017-06-27T01:01:09.290Z,1014.82
2017-06-27T01:02:18.329Z,1014.84
2017-06-27T01:03:27.542Z,1014.83
2017-06-27T01:04:36.751Z,1014.81
2017-06-27T01:05:46.291Z,1014.8
2017-06-27T01:06:55.181Z,1014.79
2017-06-27T01:08:04.121Z,1014.85
2017-06-27T01:09:13.332Z,1014.81
2017-06-27T01:10:22.223Z,1014.79
2017-06-27T01:11:31.106Z,1014.81
2017-06-27T01:12:40.316Z,1014.81
2017-06-27T01:13:49.358Z,1014.78
2017-06-27T01:14:58.242Z,1014.82
2017-06-27T01:16:07.133Z,1014.85
2017-06-27T01:17:16.028Z,1014.82
2017-06-27T01:18:25.267Z,1014.84
2017-06-27T01:19:35.080Z,1014.79
2017-06-27T01:20:43.963Z,1014.77
2017-06-27T01:21:52.851Z,1014.76
2017-06-27T01:23:01.739Z,1014.77
2017-06-27T01:24:10.626Z,1014.75
2017-06-27T01:25:19.667Z,1014.72
2017-06-27T01:26:28.556Z,1014.77
2017-06-27T01:27:37.441Z,1014.74
2017-06-27T01:28:46.327Z,1014.75
2017-06-27T01:29:55.214Z,1014.69
2017-06-27T01:31:04.524Z,1014.73
2017-06-27T01:32:13.414Z,1014.76
2017-06-27T01:33:22.305Z,1014.71
2017-06-27T01:34:31.191Z,1014.78
2017-06-27T01:35:40.108Z,1014.77
2017-06-27T01:36:49.469Z,1014.78
2017-06-27T01:37:58.356Z,1014.79
2017-06-27T01:39:07.241Z,1014.79
2017-06-27T01:40:16.128Z,1014.76
2017-06-27T01:41:25.020Z,1014.81
2017-06-27T01:42:34.008Z,1014.76
2017-06-27T01:43:42.900Z,1014.76
2017-06-27T01:44:51.786Z,1014.79
2017-06-27T01:46:01.323Z,1014.77
2017-06-27T01:47:10.208Z,1014.78
2017-06-27T01:48:19.094Z,1014.75
2017-06-27T01:49:27.984Z,1014.77
2017-06-27T01:50:37.200Z,1014.73
2017-06-27T01:51:46.093Z,1014.74
2017-06-27T01:52:54.978Z,1014.79
2017-06-27T01:54:03.865Z,1014.79
2017-06-27T01:55:13.081Z,1014.71
2017-06-27T01:56:22.618Z,1014.69
2017-06-27T01:57:31.828Z,1014.7
2017-06-27T01:58:41.372Z,1014.66
2017-06-27T01:59:50.666Z,1014.62
2017-06-27T02:00:59.556Z,1014.66
2017-06-27T02:02:08.441Z,1014.63
2017-06-27T02:03:17.326Z,1014.67
2017-06-27T02:04:26.541Z,1014.61
2017-06-27T02:05:35.477Z,1014.59
2017-06-27T02:06:44.365Z,1014.6
2017-06-27T02:07:53.248Z,1014.58
2017-06-27T02:09:02.130Z,1014.58
2017-06-27T02:10:11.017Z,1014.59
2017-06-27T02:11:20.056Z,1014.58
2017-06-27T02:12:28.949Z,1014.55
2017-06-27T02:13:38.163Z,1014.57
2017-06-27T02:14:47.728Z,1014.56
2017-06-27T02:15:56.611Z,1014.59
2017-06-27T02:17:05.972Z,1014.56
2017-06-27T02:18:14.861Z,1014.59
2017-06-27T02:19:23.748Z,1014.56
2017-06-27T02:20:32.631Z,1014.56
2017-06-27T02:21:41.517Z,1014.59
2017-06-27T02:22:50.406Z,1014.58
2017-06-27T02:23:59.619Z,1014.59
2017-06-27T02:25:08.505Z,1014.59
2017-06-27T02:26:17.391Z,1014.6
2017-06-27T02:27:26.274Z,1014.61
2017-06-27T02:28:35.212Z,1014.59
2017-06-27T02:29:44.101Z,1014.61
2017-06-27T02:30:52.989Z,1014.57
2017-06-27T02:32:02.196Z,1014.67
2017-06-27T02:33:11.406Z,1014.66
2017-06-27T02:34:20.442Z,1014.65
2017-06-27T02:35:29.653Z,1014.67
2017-06-27T02:36:38.868Z,1014.69
2017-06-27T02:37:48.081Z,1014.65
2017-06-27T02:38:56.964Z,1014.69
2017-06-27T02:40:06.001Z,1014.68
2017-06-27T02:41:15.221Z,1014.71
2017-06-27T02:42:24.111Z,1014.75
2017-06-27T02:43:32.996Z,1014.74
2017-06-27T02:44:42.216Z,1014.71
2017-06-27T02:45:51.255Z,1014.72
2017-06-27T02:47:00.146Z,1014.72
2017-06-27T02:48:09.359Z,1014.71
2017-06-27T02:49:18.246Z,1014.67
2017-06-27T02:50:27.134Z,1014.64
2017-06-27T02:51:36.220Z,1014.63
2017-06-27T02:52:45.433Z,1014.65
2017-06-27T02:53:54.975Z,1014.67
2017-06-27T02:55:04.191Z,1014.63
2017-06-27T02:56:13.402Z,1014.67
2017-06-27T02:57:22.384Z,1014.66
2017-06-27T02:58:31.595Z,1014.64
2017-06-27T02:59:40.477Z,1014.59
2017-06-27T03:00:49.687Z,1014.6
2017-06-27T03:01:58.900Z,1014.58
2017-06-27T03:03:08.106Z,1014.58
2017-06-27T03:04:16.991Z,1014.6
2017-06-27T03:05:25.870Z,1014.59
2017-06-27T03:06:34.756Z,1014.62
2017-06-27T03:07:44.289Z,1014.61
2017-06-27T03:08:53.878Z,1014.61
2017-06-27T03:10:02.774Z,1014.64
2017-06-27T03:11:11.998Z,1014.62
2017-06-27T03:12:21.208Z,1014.63
2017-06-27T03:13:30.092Z,1014.65
2017-06-27T03:14:39.077Z,1014.64
2017-06-27T03:15:47.965Z,1014.64
2017-06-27T03:16:56.854Z,1014.6
2017-06-27T03:18:05.737Z,1014.61
2017-06-27T03:19:14.621Z,1014.59
2017-06-27T03:20:23.558Z,1014.58
2017-06-27T03:21:32.447Z,1014.58
2017-06-27T03:22:41.335Z,1014.57
2017-06-27T03:23:50.223Z,1014.52
2017-06-27T03:24:59.114Z,1014.55
2017-06-27T03:26:08.003Z,1014.55
2017-06-27T03:27:16.890Z,1014.5
2017-06-27T03:28:25.774Z,1014.54
2017-06-27T03:29:34.655Z,1014.56
2017-06-27T03:30:43.866Z,1014.57
2017-06-27T03:31:53.551Z,1014.55
2017-06-27T03:33:02.441Z,1014.59
2017-06-27T03:34:11.974Z,1014.57
2017-06-27T03:35:20.860Z,1014.57
2017-06-27T03:36:29.750Z,1014.59
2017-06-27T03:37:39.062Z,1014.56
2017-06-27T03:38:47.945Z,1014.55
2017-06-27T03:39:56.828Z,1014.57
2017-06-27T03:41:05.714Z,1014.55
2017-06-27T03:42:14.928Z,1014.54
2017-06-27T03:43:23.970Z,1014.51
2017-06-27T03:44:32.855Z,1014.49
2017-06-27T03:45:41.741Z,1014.47
2017-06-27T03:46:50.624Z,1014.47
2017-06-27T03:47:59.830Z,1014.45
2017-06-27T03:49:09.191Z,1014.48
2017-06-27T03:50:18.081Z,1014.48
2017-06-27T03:51:27.623Z,1014.47
2017-06-27T03:52:36.511Z,1014.48
2017-06-27T03:53:45.396Z,1014.46
2017-06-27T03:54:54.758Z,1014.44
2017-06-27T03:56:03.665Z,1014.47
2017-06-27T03:57:12.878Z,1014.43
2017-06-27T03:58:21.769Z,1014.49
2017-06-27T03:59:31.006Z,1014.48
2017-06-27T04:00:39.993Z,1014.51
2017-06-27T04:01:48.879Z,1014.57
2017-06-27T04:02:58.087Z,1014.58
2017-06-27T04:04:07.297Z,1014.58
2017-06-27T04:05:16.839Z,1014.6
2017-06-27T04:06:26.028Z,1014.57
2017-06-27T04:07:35.242Z,1014.54
2017-06-27T04:08:44.123Z,1014.5
2017-06-27T04:09:53.014Z,1014.54
2017-06-27T04:11:01.901Z,1014.48
2017-06-27T04:12:11.263Z,1014.49
2017-06-27T04:13:20.146Z,1014.52
2017-06-27T04:14:29.033Z,1014.47
2017-06-27T04:15:37.922Z,1014.54
2017-06-27T04:16:46.812Z,1014.54
2017-06-27T04:17:55.849Z,1014.55
2017-06-27T04:19:05.380Z,1014.56
2017-06-27T04:20:14.598Z,1014.61
2017-06-27T04:21:23.485Z,1014.6
2017-06-27T04:22:32.404Z,1014.58
2017-06-27T04:23:41.445Z,1014.56
2017-06-27T04:24:50.657Z,1014.58
2017-06-27T04:25:59.572Z,1014.61
2017-06-27T04:27:08.784Z,1014.58
2017-06-27T04:28:17.672Z,1014.6
2017-06-27T04:29:26.881Z,1014.62
2017-06-27T04:30:35.820Z,1014.66
2017-06-27T04:31:44.707Z,1014.65
2017-06-27T04:32:53.594Z,1014.71
2017-06-27T04:34:02.479Z,1014.68
2017-06-27T04:35:11.939Z,1014.69
2017-06-27T04:36:21.478Z,1014.72
2017-06-27T04:37:30.371Z,1014.77
2017-06-27T04:38:39.256Z,1014.76
2017-06-27T04:39:48.140Z,1014.68
2017-06-27T04:40:57.029Z,1014.77
2017-06-27T04:42:06.243Z,1014.78
2017-06-27T04:43:15.134Z,1014.79
2017-06-27T04:44:24.019Z,1014.84
2017-06-27T04:45:32.905Z,1014.84
2017-06-27T04:46:41.946Z,1014.76
2017-06-27T04:47:51.172Z,1014.77
2017-06-27T04:49:00.061Z,1014.78
2017-06-27T04:50:09.272Z,1014.72
2017-06-27T04:51:18.157Z,1014.72
2017-06-27T04:52:27.195Z,1014.69
2017-06-27T04:53:36.120Z,1014.68
2017-06-27T04:54:45.332Z,1014.65
2017-06-27T04:55:54.219Z,1014.74
2017-06-27T04:57:03.106Z,1014.7
2017-06-27T04:58:12.144Z,1014.71
2017-06-27T04:59:21.041Z,1014.67
2017-06-27T05:00:29.931Z,1014.67
2017-06-27T05:01:38.817Z,1014.67
2017-06-27T05:02:48.030Z,1014.65
2017-06-27T05:03:57.393Z,1014.66
2017-06-27T05:05:06.286Z,1014.61
2017-06-27T05:06:15.179Z,1014.67
2017-06-27T05:07:24.066Z,1014.68
2017-06-27T05:08:32.955Z,1014.67
2017-06-27T05:09:41.989Z,1014.65
2017-06-27T05:10:51.201Z,1014.58
2017-06-27T05:12:00.089Z,1014.56
2017-06-27T05:13:09.303Z,1014.59
2017-06-27T05:14:18.192Z,1014.57
2017-06-27T05:15:27.379Z,1014.56
2017-06-27T05:16:36.592Z,1014.56
2017-06-27T05:17:45.479Z,1014.55
2017-06-27T05:18:54.373Z,1014.53
2017-06-27T05:20:03.586Z,1014.48
2017-06-27T05:21:12.721Z,1014.46
2017-06-27T05:22:21.641Z,1014.47
2017-06-27T05:23:30.864Z,1014.47
2017-06-27T05:24:40.083Z,1014.46
2017-06-27T05:25:48.976Z,1014.46
2017-06-27T05:26:57.867Z,1014.47
2017-06-27T05:28:06.755Z,1014.48
2017-06-27T05:29:15.638Z,1014.5
2017-06-27T05:30:24.531Z,1014.42
2017-06-27T05:31:33.418Z,1014.49
2017-06-27T05:32:42.683Z,1014.44
2017-06-27T05:33:51.574Z,1014.46
2017-06-27T05:35:01.109Z,1014.49
2017-06-27T05:36:10.004Z,1014.49
2017-06-27T05:37:19.218Z,1014.49
2017-06-27T05:38:28.488Z,1014.48
2017-06-27T05:39:37.711Z,1014.48
2017-06-27T05:40:46.598Z,1014.51
2017-06-27T05:41:55.491Z,1014.49
2017-06-27T05:43:04.384Z,1014.45
2017-06-27T05:44:13.574Z,1014.47
2017-06-27T05:45:22.811Z,1014.45
2017-06-27T05:46:32.025Z,1014.46
2017-06-27T05:47:40.911Z,1014.47
2017-06-27T05:48:50.075Z,1014.43
2017-06-27T05:49:59.633Z,1014.4
2017-06-27T05:51:08.737Z,1014.36
2017-06-27T05:52:18.261Z,1014.37
2017-06-27T05:53:27.806Z,1014.36
2017-06-27T05:54:37.185Z,1014.35
2017-06-27T05:55:46.155Z,1014.34
2017-06-27T05:56:55.250Z,1014.38
2017-06-27T05:58:04.330Z,1014.37
2017-06-27T05:59:13.322Z,1014.37
2017-06-27T06:00:22.592Z,1014.33
2017-06-27T06:01:31.747Z,1014.35
2017-06-27T06:02:40.958Z,1014.27
2017-06-27T06:03:50.487Z,1014.3
2017-06-27T06:04:59.791Z,1014.31
2017-06-27T06:06:08.790Z,1014.32
2017-06-27T06:07:18.936Z,1014.3
2017-06-27T06:08:27.933Z,1014.27
2017-06-27T06:09:36.940Z,1014.31
2017-06-27T06:10:45.906Z,1014.28
2017-06-27T06:11:55.269Z,1014.32
2017-06-27T06:13:04.540Z,1014.28
2017-06-27T06:14:13.714Z,1014.24
2017-06-27T06:15:23.156Z,1014.23
2017-06-27T06:16:32.144Z,1014.2
2017-06-27T06:17:41.165Z,1014.19
2017-06-27T06:18:50.148Z,1014.16
2017-06-27T06:19:59.625Z,1014.12
2017-06-27T06:21:09.269Z,1014.09
2017-06-27T06:22:18.297Z,1014.13
2017-06-27T06:23:27.590Z,1014.07
2017-06-27T06:24:36.589Z,1014.1
2017-06-27T06:25:45.590Z,1014.08
2017-06-27T06:26:55.181Z,1014.13
2017-06-27T06:28:04.071Z,1014.07
2017-06-27T06:29:12.960Z,1014.09
2017-06-27T06:30:21.851Z,1014.07
2017-06-27T06:31:30.747Z,1014.07
2017-06-27T06:32:40.945Z,1014.07
2017-06-27T06:33:49.838Z,1014.07
2017-06-27T06:34:58.730Z,1014.06
2017-06-27T06:36:08.272Z,1014.06
2017-06-27T06:37:17.848Z,1014.05
2017-06-27T06:38:27.062Z,1014.08
2017-06-27T06:39:35.954Z,1014.09
2017-06-27T06:40:45.497Z,1014.09
2017-06-27T06:41:54.714Z,1014.12
2017-06-27T06:43:03.603Z,1014.09
2017-06-27T06:44:13.162Z,1014.07
2017-06-27T06:45:22.058Z,1014.04
2017-06-27T06:46:30.959Z,1014.04
2017-06-27T06:47:40.092Z,1014.04
2017-06-27T06:48:49.376Z,1014.03
2017-06-27T06:49:58.864Z,1014.02
2017-06-27T06:51:08.560Z,1013.98
2017-06-27T06:52:17.588Z,1013.95
2017-06-27T06:53:26.800Z,1014.02
2017-06-27T06:54:35.692Z,1014.02
2017-06-27T06:55:45.889Z,1014.02
2017-06-27T06:56:54.785Z,1013.98
2017-06-27T06:58:03.977Z,1014.04
2017-06-27T06:59:13.192Z,1014.03
2017-06-27T07:00:22.079Z,1014.05
2017-06-27T07:01:31.298Z,1014.05
2017-06-27T07:02:40.199Z,1014.09
2017-06-27T07:03:49.893Z,1014.06
2017-06-27T07:04:58.783Z,1014.11
2017-06-27T07:06:08.001Z,1014.15
2017-06-27T07:07:17.217Z,1014.14
2017-06-27T07:08:26.432Z,1014.14
2017-06-27T07:09:35.945Z,1014.13
2017-06-27T07:10:45.491Z,1014.14
2017-06-27T07:11:54.709Z,1014.19
2017-06-27T07:13:03.599Z,1014.14
2017-06-27T07:14:12.819Z,1014.15
2017-06-27T07:15:22.194Z,1014.15
2017-06-27T07:16:31.409Z,1014.14
2017-06-27T07:17:40.299Z,1014.15
2017-06-27T07:18:50.165Z,1014.1
2017-06-27T07:19:59.057Z,1014.13
2017-06-27T07:21:08.524Z,1014.1
2017-06-27T07:22:17.419Z,1014.08
2017-06-27T07:23:26.313Z,1014.14
2017-06-27T07:24:35.530Z,1014.13
2017-06-27T07:25:44.436Z,1014.12
2017-06-27T07:26:53.478Z,1014.09
2017-06-27T07:28:02.370Z,1014.07
2017-06-27T07:29:11.588Z,1014.07
2017-06-27T07:30:21.136Z,1014.08
2017-06-27T07:31:30.353Z,1014.06
2017-06-27T07:32:39.644Z,1014.06
2017-06-27T07:33:49.189Z,1014.05
2017-06-27T07:34:58.405Z,1014.08
2017-06-27T07:36:07.618Z,1014.03
2017-06-27T07:37:16.838Z,1014.06
2017-06-27T07:38:25.777Z,1014.07
2017-06-27T07:39:34.668Z,1014.08
2017-06-27T07:40:43.889Z,1014.1
2017-06-27T07:41:52.779Z,1014.11
2017-06-27T07:43:02.320Z,1014.06
2017-06-27T07:44:11.366Z,1014.06
2017-06-27T07:45:20.906Z,1014.05
2017-06-27T07:46:29.808Z,1014.04
2017-06-27T07:47:39.347Z,1014.04
2017-06-27T07:48:48.248Z,1014.08
2017-06-27T07:49:57.287Z,1014.08
2017-06-27T07:51:06.505Z,1014.11
2017-06-27T07:52:16.377Z,1014.07
2017-06-27T07:53:25.267Z,1014.07
2017-06-27T07:54:34.155Z,1014.1
2017-06-27T07:55:44.048Z,1014.1
2017-06-27T07:56:52.945Z,1014.09
2017-06-27T07:58:01.841Z,1014.12
2017-06-27T07:59:10.734Z,1014.07
2017-06-27T08:00:20.597Z,1014.08
2017-06-27T08:01:29.791Z,1014.02
2017-06-27T08:02:39.009Z,1014
2017-06-27T08:03:48.227Z,1014.05
2017-06-27T08:04:57.443Z,1014.02
2017-06-27T08:06:06.666Z,1014
2017-06-27T08:07:16.589Z,1013.96
2017-06-27T08:08:25.825Z,1013.95
2017-06-27T08:09:34.715Z,1013.92
2017-06-27T08:10:44.270Z,1013.92
2017-06-27T08:11:53.493Z,1013.98
2017-06-27T08:13:02.860Z,1013.91
2017-06-27T08:14:11.762Z,1013.89
2017-06-27T08:15:20.652Z,1013.92
2017-06-27T08:16:29.547Z,1013.86
2017-06-27T08:17:38.768Z,1013.88
2017-06-27T08:18:47.830Z,1013.85
2017-06-27T08:19:56.751Z,1013.85
2017-06-27T08:21:05.648Z,1013.83
2017-06-27T08:22:15.195Z,1013.87
2017-06-27T08:23:24.418Z,1013.87
2017-06-27T08:24:33.409Z,1013.83
2017-06-27T08:25:42.311Z,1013.81
2017-06-27T08:26:51.526Z,1013.8
2017-06-27T08:28:00.420Z,1013.76
2017-06-27T08:29:09.642Z,1013.77
2017-06-27T08:30:18.691Z,1013.78
2017-06-27T08:31:27.593Z,1013.81
2017-06-27T08:32:36.481Z,1013.82
2017-06-27T08:33:45.696Z,1013.81
2017-06-27T08:34:54.920Z,1013.79
2017-06-27T08:36:03.958Z,1013.78
2017-06-27T08:37:13.826Z,1013.76
2017-06-27T08:38:23.046Z,1013.78
2017-06-27T08:39:32.591Z,1013.74
2017-06-27T08:40:41.515Z,1013.72
2017-06-27T08:41:50.987Z,1013.7
2017-06-27T08:43:00.209Z,1013.62
2017-06-27T08:44:09.748Z,1013.64
2017-06-27T08:45:18.968Z,1013.64
2017-06-27T08:46:27.864Z,1013.64
2017-06-27T08:47:37.013Z,1013.66
2017-06-27T08:48:46.229Z,1013.68
2017-06-27T08:49:55.118Z,1013.66
2017-06-27T08:51:04.008Z,1013.71
2017-06-27T08:52:13.226Z,1013.67
2017-06-27T08:53:22.268Z,1013.67
2017-06-27T08:54:31.162Z,1013.68
2017-06-27T08:55:40.374Z,1013.69
2017-06-27T08:56:49.594Z,1013.73
2017-06-27T08:57:58.486Z,1013.71
2017-06-27T08:59:07.523Z,1013.7
2017-06-27T09:00:16.422Z,1013.69
2017-06-27T09:01:25.318Z,1013.66
2017-06-27T09:02:34.534Z,1013.62
2017-06-27T09:03:43.754Z,1013.66
2017-06-27T09:04:52.645Z,1013.68
2017-06-27T09:06:01.540Z,1013.64
2017-06-27T09:07:10.434Z,1013.65
2017-06-27T09:08:19.653Z,1013.67
2017-06-27T09:09:28.545Z,1013.63
2017-06-27T09:10:38.239Z,1013.65
2017-06-27T09:11:47.859Z,1013.6
2017-06-27T09:12:56.757Z,1013.61
2017-06-27T09:14:05.653Z,1013.57
2017-06-27T09:15:14.873Z,1013.57
2017-06-27T09:16:24.416Z,1013.58
2017-06-27T09:17:33.318Z,1013.55
2017-06-27T09:18:42.211Z,1013.53
2017-06-27T09:19:52.078Z,1013.56
2017-06-27T09:21:00.973Z,1013.57
2017-06-27T09:22:09.866Z,1013.6
2017-06-27T09:23:19.408Z,1013.58
2017-06-27T09:24:28.632Z,1013.5
2017-06-27T09:25:37.851Z,1013.56
2017-06-27T09:26:46.751Z,1013.55
2017-06-27T09:27:56.022Z,1013.57
2017-06-27T09:29:05.249Z,1013.59
2017-06-27T09:30:14.142Z,1013.57
2017-06-27T09:31:23.358Z,1013.56
2017-06-27T09:32:32.250Z,1013.58
2017-06-27T09:33:41.251Z,1013.53
2017-06-27T09:34:50.471Z,1013.5
2017-06-27T09:35:59.358Z,1013.48
2017-06-27T09:37:08.899Z,1013.45
2017-06-27T09:38:18.448Z,1013.44
2017-06-27T09:39:27.495Z,1013.4
2017-06-27T09:40:36.385Z,1013.36
2017-06-27T09:41:45.609Z,1013.31
2017-06-27T09:42:54.512Z,1013.39
2017-06-27T09:44:03.406Z,1013.33
2017-06-27T09:45:12.453Z,1013.36
2017-06-27T09:46:21.698Z,1013.36
2017-06-27T09:47:30.597Z,1013.34
2017-06-27T09:48:39.487Z,1013.29
2017-06-27T09:49:48.705Z,1013.35
2017-06-27T09:50:57.899Z,1013.31
2017-06-27T09:52:06.800Z,1013.31
2017-06-27T09:53:16.344Z,1013.23
2017-06-27T09:54:25.240Z,1013.23
2017-06-27T09:55:34.134Z,1013.21
2017-06-27T09:56:43.782Z,1013.18
2017-06-27T09:57:52.999Z,1013.22
2017-06-27T09:59:01.890Z,1013.22
2017-06-27T10:00:10.788Z,1013.25
2017-06-27T10:01:20.013Z,1013.22
2017-06-27T10:02:29.313Z,1013.25
2017-06-27T10:03:38.206Z,1013.28
2017-06-27T10:04:47.779Z,1013.23
2017-06-27T10:05:57.001Z,1013.17
2017-06-27T10:07:06.217Z,1013.16
2017-06-27T10:08:15.737Z,1013.16
2017-06-27T10:09:24.643Z,1013.18
2017-06-27T10:10:33.866Z,1013.16
2017-06-27T10:11:42.762Z,1013.2
2017-06-27T10:12:51.988Z,1013.18
2017-06-27T10:14:01.506Z,1013.2
2017-06-27T10:15:10.728Z,1013.21
2017-06-27T10:16:19.949Z,1013.19
2017-06-27T10:17:29.165Z,1013.17
2017-06-27T10:18:38.384Z,1013.14
2017-06-27T10:19:47.377Z,1013.13
2017-06-27T10:20:56.275Z,1013.13
2017-06-27T10:22:05.177Z,1013.1
2017-06-27T10:23:14.731Z,1013.1
2017-06-27T10:24:24.281Z,1013.1
2017-06-27T10:25:33.226Z,1013.08
2017-06-27T10:26:42.493Z,1013.04
2017-06-27T10:27:51.713Z,1013.04
2017-06-27T10:29:00.602Z,1013.03
2017-06-27T10:30:09.829Z,1013.02
2017-06-27T10:31:19.485Z,1013
2017-06-27T10:32:28.381Z,1013.02
2017-06-27T10:33:37.290Z,1013.02
2017-06-27T10:34:46.512Z,1012.94
2017-06-27T10:35:55.735Z,1013.02
2017-06-27T10:37:04.970Z,1012.97
2017-06-27T10:38:14.521Z,1013.06
2017-06-27T10:39:23.418Z,1013.02
2017-06-27T10:40:32.663Z,1013.03
2017-06-27T10:41:41.881Z,1013
2017-06-27T10:42:50.776Z,1013
2017-06-27T10:43:59.669Z,1013.03
2017-06-27T10:45:08.564Z,1013.02
2017-06-27T10:46:18.108Z,1013.01
2017-06-27T10:47:27.325Z,1013
2017-06-27T10:48:36.521Z,1012.95
2017-06-27T10:49:45.743Z,1012.98
2017-06-27T10:50:54.642Z,1012.97
2017-06-27T10:52:03.535Z,1012.91
2017-06-27T10:53:13.079Z,1012.93
2017-06-27T10:54:21.976Z,1012.92
2017-06-27T10:55:31.200Z,1012.95
2017-06-27T10:56:40.137Z,1012.91
2017-06-27T10:57:49.367Z,1012.92
2017-06-27T10:58:58.587Z,1012.83
2017-06-27T11:00:07.961Z,1012.83
2017-06-27T11:01:17.513Z,1012.81
2017-06-27T11:02:26.735Z,1012.83
2017-06-27T11:03:35.954Z,1012.83
2017-06-27T11:04:45.177Z,1012.84
2017-06-27T11:05:54.871Z,1012.86
2017-06-27T11:07:04.416Z,1012.79
2017-06-27T11:08:13.648Z,1012.79
2017-06-27T11:09:22.541Z,1012.74
2017-06-27T11:10:31.432Z,1012.74
2017-06-27T11:11:40.380Z,1012.76
2017-06-27T11:12:49.603Z,1012.79
2017-06-27T11:13:58.499Z,1012.81
2017-06-27T11:15:07.393Z,1012.76
2017-06-27T11:16:16.295Z,1012.71
2017-06-27T11:17:25.339Z,1012.75
2017-06-27T11:18:34.245Z,1012.66
2017-06-27T11:19:43.480Z,1012.7
2017-06-27T11:20:52.706Z,1012.73
2017-06-27T11:22:01.608Z,1012.74
2017-06-27T11:23:10.834Z,1012.72
2017-06-27T11:24:20.384Z,1012.73
2017-06-27T11:25:29.610Z,1012.73
2017-06-27T11:26:38.509Z,1012.68
2017-06-27T11:27:47.728Z,1012.64
2017-06-27T11:28:57.100Z,1012.6
2017-06-27T11:30:05.996Z,1012.63
2017-06-27T11:31:15.552Z,1012.56
2017-06-27T11:32:24.449Z,1012.54
2017-06-27T11:33:33.670Z,1012.53
2017-06-27T11:34:42.673Z,1012.5
2017-06-27T11:35:51.574Z,1012.54
2017-06-27T11:37:00.834Z,1012.48
2017-06-27T11:38:09.733Z,1012.47
2017-06-27T11:39:18.953Z,1012.44
2017-06-27T11:40:28.227Z,1012.44
2017-06-27T11:41:37.130Z,1012.41
2017-06-27T11:42:46.033Z,1012.43
2017-06-27T11:43:55.254Z,1012.42
2017-06-27T11:45:04.151Z,1012.39
2017-06-27T11:46:13.950Z,1012.42
2017-06-27T11:47:22.852Z,1012.38
2017-06-27T11:48:31.748Z,1012.33
2017-06-27T11:49:40.644Z,1012.32
2017-06-27T11:50:50.186Z,1012.33
2017-06-27T11:51:59.416Z,1012.33
2017-06-27T11:53:08.643Z,1012.3
2017-06-27T11:54:17.551Z,1012.28
2017-06-27T11:55:26.449Z,1012.29
2017-06-27T11:56:35.670Z,1012.3
2017-06-27T11:57:44.675Z,1012.36
2017-06-27T11:58:53.897Z,1012.3
2017-06-27T12:00:03.124Z,1012.33
2017-06-27T12:01:12.024Z,1012.34
2017-06-27T12:02:20.950Z,1012.3
2017-06-27T12:03:29.905Z,1012.22
2017-06-27T12:04:39.128Z,1012.26
2017-06-27T12:05:48.354Z,1012.27
2017-06-27T12:06:57.585Z,1012.25
2017-06-27T12:08:06.488Z,1012.15
2017-06-27T12:09:15.713Z,1012.2
2017-06-27T12:10:24.612Z,1012.21
2017-06-27T12:11:34.164Z,1012.23
2017-06-27T12:12:43.078Z,1012.3
2017-06-27T12:13:51.999Z,1012.22
2017-06-27T12:15:00.943Z,1012.19
2017-06-27T12:16:10.174Z,1012.19
2017-06-27T12:17:19.094Z,1012.18
2017-06-27T12:18:28.010Z,1012.19
2017-06-27T12:19:36.959Z,1012.19
2017-06-27T12:20:46.340Z,1012.07
2017-06-27T12:21:55.248Z,1012.07
2017-06-27T12:23:04.155Z,1012.06
2017-06-27T12:24:13.732Z,1012.06
2017-06-27T12:25:23.017Z,1012.03
2017-06-27T12:26:32.405Z,1011.98
2017-06-27T12:27:41.326Z,1012
2017-06-27T12:28:50.233Z,1011.99
2017-06-27T12:29:59.460Z,1011.96
2017-06-27T12:31:08.370Z,1011.93
2017-06-27T12:32:18.076Z,1011.9
2017-06-27T12:33:26.989Z,1011.87
2017-06-27T12:34:36.233Z,1011.91
2017-06-27T12:35:45.495Z,1011.87
2017-06-27T12:36:54.401Z,1011.91
2017-06-27T12:38:03.309Z,1011.89
2017-06-27T12:39:12.217Z,1011.86
2017-06-27T12:40:21.824Z,1011.72
2017-06-27T12:41:30.726Z,1011.75
2017-06-27T12:42:39.971Z,1011.73
2017-06-27T12:43:49.255Z,1011.79
2017-06-27T12:44:58.160Z,1011.85
2017-06-27T12:46:07.099Z,1011.84
2017-06-27T12:47:16.068Z,1011.78
2017-06-27T12:48:24.978Z,1011.73
2017-06-27T12:49:33.963Z,1011.65
2017-06-27T12:50:43.845Z,1011.55
2017-06-27T12:51:53.727Z,1011.56
2017-06-27T12:53:02.966Z,1011.62
2017-06-27T12:54:11.869Z,1011.59
2017-06-27T12:55:21.901Z,1011.61
2017-06-27T12:56:30.814Z,1011.56
2017-06-27T12:57:39.718Z,1011.55
2017-06-27T12:58:48.945Z,1011.57
2017-06-27T12:59:57.851Z,1011.56
2017-06-27T13:01:07.389Z,1011.61
2017-06-27T13:02:16.619Z,1011.54
2017-06-27T13:03:25.543Z,1011.55
2017-06-27T13:04:34.962Z,1011.55
2017-06-27T13:05:43.865Z,1011.53
2017-06-27T13:06:53.067Z,1011.51
2017-06-27T13:08:01.972Z,1011.52
2017-06-27T13:09:11.198Z,1011.54
2017-06-27T13:10:20.758Z,1011.56
2017-06-27T13:11:29.660Z,1011.54
2017-06-27T13:12:39.035Z,1011.55
2017-06-27T13:13:48.259Z,1011.55
2017-06-27T13:14:57.158Z,1011.56
2017-06-27T13:16:06.383Z,1011.51
2017-06-27T13:17:16.256Z,1011.54
2017-06-27T13:18:25.169Z,1011.56
2017-06-27T13:19:34.068Z,1011.51
2017-06-27T13:20:43.299Z,1011.53
2017-06-27T13:21:52.204Z,1011.51
2017-06-27T13:23:01.443Z,1011.45
2017-06-27T13:24:10.730Z,1011.52
2017-06-27T13:25:20.062Z,1011.51
2017-06-27T13:26:28.966Z,1011.45
2017-06-27T13:27:37.873Z,1011.4
2017-06-27T13:28:46.797Z,1011.4
2017-06-27T13:29:55.704Z,1011.41
2017-06-27T13:31:04.931Z,1011.44
2017-06-27T13:32:14.483Z,1011.39
2017-06-27T13:33:23.384Z,1011.39
2017-06-27T13:34:32.616Z,1011.36
2017-06-27T13:35:42.001Z,1011.33
2017-06-27T13:36:51.229Z,1011.43
2017-06-27T13:38:00.133Z,1011.37
2017-06-27T13:39:09.037Z,1011.37
2017-06-27T13:40:18.334Z,1011.46
2017-06-27T13:41:27.544Z,1011.51
2017-06-27T13:42:36.478Z,1011.48
2017-06-27T13:43:45.717Z,1011.43
2017-06-27T13:44:54.959Z,1011.49
2017-06-27T13:46:04.211Z,1011.39
2017-06-27T13:47:13.883Z,1011.35
2017-06-27T13:48:22.794Z,1011.26
2017-06-27T13:49:32.096Z,1011.28
2017-06-27T13:50:41.005Z,1011.21
2017-06-27T13:51:49.909Z,1011.17
2017-06-27T13:52:59.290Z,1011.18
2017-06-27T13:54:08.523Z,1011.17
2017-06-27T13:55:17.760Z,1011.13
2017-06-27T13:56:26.677Z,1011.14
2017-06-27T13:57:35.952Z,1011.07